sensor_id;sensor_type;location;lat;lon;timestamp;temperature;humidity
20335;DHT22;10325;51.468;5.804;2023-02-28T00:01:30;14.70;59.40
20335;DHT22;10325;51.468;5.804;2023-02-28T00:04:01;14.70;60.10
20335;DHT22;10325;51.468;5.804;2023-02-28T00:06:35;14.70;59.40
20335;DHT22;10325;51.468;5.804;2023-02-28T00:09:06;14.70;59.40
20335;DHT22;10325;51.468;5.804;2023-02-28T00:11:38;14.70;59.40
20335;DHT22;10325;51.468;5.804;2023-02-28T00:14:07;14.70;59.50
20335;DHT22;10325;51.468;5.804;2023-02-28T00:16:40;14.70;59.40
20335;DHT22;10325;51.468;5.804;2023-02-28T00:19:09;14.70;59.40
20335;DHT22;10325;51.468;5.804;2023-02-28T00:21:42;14.70;59.40
20335;DHT22;10325;51.468;5.804;2023-02-28T00:24:14;14.70;59.40
20335;DHT22;10325;51.468;5.804;2023-02-28T00:26:45;14.70;59.40
20335;DHT22;10325;51.468;5.804;2023-02-28T00:29:16;14.70;59.40
20335;DHT22;10325;51.468;5.804;2023-02-28T00:31:49;14.70;59.40
20335;DHT22;10325;51.468;5.804;2023-02-28T00:34:18;14.70;59.40
20335;DHT22;10325;51.468;5.804;2023-02-28T00:36:46;14.70;59.40
20335;DHT22;10325;51.468;5.804;2023-02-28T00:39:19;14.70;59.40
20335;DHT22;10325;51.468;5.804;2023-02-28T00:41:50;14.60;59.40
20335;DHT22;10325;51.468;5.804;2023-02-28T00:44:22;14.60;59.40
20335;DHT22;10325;51.468;5.804;2023-02-28T00:46:52;14.60;59.40
20335;DHT22;10325;51.468;5.804;2023-02-28T00:49:26;14.60;59.40
20335;DHT22;10325;51.468;5.804;2023-02-28T00:51:55;14.60;59.40
20335;DHT22;10325;51.468;5.804;2023-02-28T00:54:29;14.60;59.40
20335;DHT22;10325;51.468;5.804;2023-02-28T00:56:57;14.60;59.40
20335;DHT22;10325;51.468;5.804;2023-02-28T00:59:28;14.60;59.40
20335;DHT22;10325;51.468;5.804;2023-02-28T01:02:03;14.60;59.40
20335;DHT22;10325;51.468;5.804;2023-02-28T01:04:34;14.60;59.50
20335;DHT22;10325;51.468;5.804;2023-02-28T01:07:05;14.60;59.40
20335;DHT22;10325;51.468;5.804;2023-02-28T01:09:37;14.60;59.50
20335;DHT22;10325;51.468;5.804;2023-02-28T01:12:05;14.60;59.50
20335;DHT22;10325;51.468;5.804;2023-02-28T01:14:33;14.60;59.50
20335;DHT22;10325;51.468;5.804;2023-02-28T01:17:02;14.60;59.50
20335;DHT22;10325;51.468;5.804;2023-02-28T01:19:35;14.60;59.50
20335;DHT22;10325;51.468;5.804;2023-02-28T01:22:05;14.60;59.50
20335;DHT22;10325;51.468;5.804;2023-02-28T01:24:42;14.60;59.60
20335;DHT22;10325;51.468;5.804;2023-02-28T01:27:16;14.60;59.60
20335;DHT22;10325;51.468;5.804;2023-02-28T01:29:47;14.50;59.50
20335;DHT22;10325;51.468;5.804;2023-02-28T01:32:23;14.50;59.50
20335;DHT22;10325;51.468;5.804;2023-02-28T01:34:51;14.50;59.50
20335;DHT22;10325;51.468;5.804;2023-02-28T01:37:18;14.50;59.50
20335;DHT22;10325;51.468;5.804;2023-02-28T01:39:51;14.50;59.60
20335;DHT22;10325;51.468;5.804;2023-02-28T01:42:20;14.50;59.60
20335;DHT22;10325;51.468;5.804;2023-02-28T01:47:50;14.50;59.60
20335;DHT22;10325;51.468;5.804;2023-02-28T01:50:39;14.50;59.60
20335;DHT22;10325;51.468;5.804;2023-02-28T01:53:24;14.50;59.60
20335;DHT22;10325;51.468;5.804;2023-02-28T01:55:58;14.50;59.60
20335;DHT22;10325;51.468;5.804;2023-02-28T01:58:29;14.50;59.60
20335;DHT22;10325;51.468;5.804;2023-02-28T02:01:00;14.50;59.70
20335;DHT22;10325;51.468;5.804;2023-02-28T02:03:39;14.50;59.80
20335;DHT22;10325;51.468;5.804;2023-02-28T02:06:11;14.50;59.60
20335;DHT22;10325;51.468;5.804;2023-02-28T02:08:53;14.50;59.70
20335;DHT22;10325;51.468;5.804;2023-02-28T02:11:25;14.50;59.70
20335;DHT22;10325;51.468;5.804;2023-02-28T02:25:45;14.50;59.80
20335;DHT22;10325;51.468;5.804;2023-02-28T02:37:50;14.40;59.70
20335;DHT22;10325;51.468;5.804;2023-02-28T02:43:24;14.40;59.80
20335;DHT22;10325;51.468;5.804;2023-02-28T02:46:44;14.40;59.80
20335;DHT22;10325;51.468;5.804;2023-02-28T02:48:54;14.50;59.80
20335;DHT22;10325;51.468;5.804;2023-02-28T02:51:24;14.40;59.80
20335;DHT22;10325;51.468;5.804;2023-02-28T02:53:55;14.40;59.80
20335;DHT22;10325;51.468;5.804;2023-02-28T02:56:31;14.40;59.80
20335;DHT22;10325;51.468;5.804;2023-02-28T02:59:07;14.40;59.70
20335;DHT22;10325;51.468;5.804;2023-02-28T03:01:39;14.40;59.80
20335;DHT22;10325;51.468;5.804;2023-02-28T03:04:18;14.40;59.70
20335;DHT22;10325;51.468;5.804;2023-02-28T03:06:47;14.40;59.70
20335;DHT22;10325;51.468;5.804;2023-02-28T03:09:16;14.40;59.70
20335;DHT22;10325;51.468;5.804;2023-02-28T03:11:47;14.40;59.70
20335;DHT22;10325;51.468;5.804;2023-02-28T03:17:44;14.40;59.80
20335;DHT22;10325;51.468;5.804;2023-02-28T03:20:38;14.30;59.70
20335;DHT22;10325;51.468;5.804;2023-02-28T03:23:17;14.30;59.80
20335;DHT22;10325;51.468;5.804;2023-02-28T03:26:08;14.30;59.70
20335;DHT22;10325;51.468;5.804;2023-02-28T03:34:41;14.30;59.70
20335;DHT22;10325;51.468;5.804;2023-02-28T03:37:16;14.30;59.80
20335;DHT22;10325;51.468;5.804;2023-02-28T03:39:58;14.30;59.80
20335;DHT22;10325;51.468;5.804;2023-02-28T03:42:31;14.30;59.80
20335;DHT22;10325;51.468;5.804;2023-02-28T03:45:20;14.30;59.70
20335;DHT22;10325;51.468;5.804;2023-02-28T03:48:21;14.30;59.70
20335;DHT22;10325;51.468;5.804;2023-02-28T03:50:54;14.30;59.80
20335;DHT22;10325;51.468;5.804;2023-02-28T03:53:46;14.30;59.80
20335;DHT22;10325;51.468;5.804;2023-02-28T03:56:36;14.30;59.80
20335;DHT22;10325;51.468;5.804;2023-02-28T03:59:19;14.30;59.70
20335;DHT22;10325;51.468;5.804;2023-02-28T04:01:52;14.30;59.70
20335;DHT22;10325;51.468;5.804;2023-02-28T04:04:22;14.30;59.70
20335;DHT22;10325;51.468;5.804;2023-02-28T04:07:06;14.30;59.70
20335;DHT22;10325;51.468;5.804;2023-02-28T04:09:41;14.30;59.80
20335;DHT22;10325;51.468;5.804;2023-02-28T04:12:11;14.30;59.70
20335;DHT22;10325;51.468;5.804;2023-02-28T04:14:41;14.30;59.80
20335;DHT22;10325;51.468;5.804;2023-02-28T04:17:12;14.30;59.80
20335;DHT22;10325;51.468;5.804;2023-02-28T04:19:40;14.30;59.70
20335;DHT22;10325;51.468;5.804;2023-02-28T04:22:08;14.30;59.80
20335;DHT22;10325;51.468;5.804;2023-02-28T04:24:37;14.30;59.80
20335;DHT22;10325;51.468;5.804;2023-02-28T04:27:13;14.20;59.80
20335;DHT22;10325;51.468;5.804;2023-02-28T04:29:44;14.30;59.80
20335;DHT22;10325;51.468;5.804;2023-02-28T04:32:14;14.20;59.80
20335;DHT22;10325;51.468;5.804;2023-02-28T04:34:43;14.30;59.80
20335;DHT22;10325;51.468;5.804;2023-02-28T04:37:15;14.20;59.70
20335;DHT22;10325;51.468;5.804;2023-02-28T04:39:52;14.20;59.70
20335;DHT22;10325;51.468;5.804;2023-02-28T04:42:26;14.30;59.80
20335;DHT22;10325;51.468;5.804;2023-02-28T04:44:57;14.20;59.80
20335;DHT22;10325;51.468;5.804;2023-02-28T04:47:28;14.20;59.80
20335;DHT22;10325;51.468;5.804;2023-02-28T04:49:58;14.20;59.90
20335;DHT22;10325;51.468;5.804;2023-02-28T04:52:28;14.20;59.80
20335;DHT22;10325;51.468;5.804;2023-02-28T04:54:59;14.20;59.80
20335;DHT22;10325;51.468;5.804;2023-02-28T04:57:31;14.20;59.70
20335;DHT22;10325;51.468;5.804;2023-02-28T04:59:59;14.20;59.80
20335;DHT22;10325;51.468;5.804;2023-02-28T05:02:30;14.20;59.80
20335;DHT22;10325;51.468;5.804;2023-02-28T05:05:04;14.20;59.80
20335;DHT22;10325;51.468;5.804;2023-02-28T05:07:36;14.20;59.80
20335;DHT22;10325;51.468;5.804;2023-02-28T05:10:07;14.20;59.80
20335;DHT22;10325;51.468;5.804;2023-02-28T05:12:38;14.20;59.90
20335;DHT22;10325;51.468;5.804;2023-02-28T05:15:12;14.20;59.90
20335;DHT22;10325;51.468;5.804;2023-02-28T05:17:43;14.20;59.90
20335;DHT22;10325;51.468;5.804;2023-02-28T05:20:15;14.20;59.90
20335;DHT22;10325;51.468;5.804;2023-02-28T05:22:43;14.20;59.90
20335;DHT22;10325;51.468;5.804;2023-02-28T05:25:19;14.20;59.90
20335;DHT22;10325;51.468;5.804;2023-02-28T05:27:51;14.10;59.80
20335;DHT22;10325;51.468;5.804;2023-02-28T05:30:22;14.20;59.90
20335;DHT22;10325;51.468;5.804;2023-02-28T05:32:53;14.20;59.90
20335;DHT22;10325;51.468;5.804;2023-02-28T05:35:27;14.10;59.80
20335;DHT22;10325;51.468;5.804;2023-02-28T05:37:54;14.20;59.90
20335;DHT22;10325;51.468;5.804;2023-02-28T05:40:25;14.20;59.80
20335;DHT22;10325;51.468;5.804;2023-02-28T05:42:56;14.20;59.80
20335;DHT22;10325;51.468;5.804;2023-02-28T05:45:29;14.20;59.80
20335;DHT22;10325;51.468;5.804;2023-02-28T05:48:03;14.20;59.80
20335;DHT22;10325;51.468;5.804;2023-02-28T05:50:35;14.10;59.70
20335;DHT22;10325;51.468;5.804;2023-02-28T05:53:08;14.10;59.80
20335;DHT22;10325;51.468;5.804;2023-02-28T05:55:37;14.20;59.90
20335;DHT22;10325;51.468;5.804;2023-02-28T05:58:08;14.10;59.80
20335;DHT22;10325;51.468;5.804;2023-02-28T06:00:41;14.20;59.80
20335;DHT22;10325;51.468;5.804;2023-02-28T06:03:14;14.20;59.70
20335;DHT22;10325;51.468;5.804;2023-02-28T06:05:42;14.20;59.70
20335;DHT22;10325;51.468;5.804;2023-02-28T06:08:14;14.20;59.70
20335;DHT22;10325;51.468;5.804;2023-02-28T06:10:43;14.10;59.70
20335;DHT22;10325;51.468;5.804;2023-02-28T06:13:15;14.10;59.70
20335;DHT22;10325;51.468;5.804;2023-02-28T06:15:45;14.10;59.70
20335;DHT22;10325;51.468;5.804;2023-02-28T06:18:17;14.10;59.60
20335;DHT22;10325;51.468;5.804;2023-02-28T06:20:53;14.10;59.60
20335;DHT22;10325;51.468;5.804;2023-02-28T06:23:25;14.10;59.70
20335;DHT22;10325;51.468;5.804;2023-02-28T06:25:59;14.10;59.60
20335;DHT22;10325;51.468;5.804;2023-02-28T06:28:31;14.10;59.60
20335;DHT22;10325;51.468;5.804;2023-02-28T06:31:09;14.10;59.60
20335;DHT22;10325;51.468;5.804;2023-02-28T06:33:40;14.10;59.70
20335;DHT22;10325;51.468;5.804;2023-02-28T06:36:10;14.10;59.60
20335;DHT22;10325;51.468;5.804;2023-02-28T06:38:39;14.10;59.50
20335;DHT22;10325;51.468;5.804;2023-02-28T06:41:11;14.10;59.50
20335;DHT22;10325;51.468;5.804;2023-02-28T06:43:57;14.10;59.50
20335;DHT22;10325;51.468;5.804;2023-02-28T06:46:38;14.10;59.50
20335;DHT22;10325;51.468;5.804;2023-02-28T06:49:08;14.10;59.50
20335;DHT22;10325;51.468;5.804;2023-02-28T06:51:43;14.10;59.50
20335;DHT22;10325;51.468;5.804;2023-02-28T06:54:13;14.10;59.50
20335;DHT22;10325;51.468;5.804;2023-02-28T06:56:48;14.10;59.50
20335;DHT22;10325;51.468;5.804;2023-02-28T06:59:16;14.10;59.50
20335;DHT22;10325;51.468;5.804;2023-02-28T07:01:53;14.10;59.50
20335;DHT22;10325;51.468;5.804;2023-02-28T07:04:26;14.10;59.40
20335;DHT22;10325;51.468;5.804;2023-02-28T07:06:56;14.10;59.40
20335;DHT22;10325;51.468;5.804;2023-02-28T07:09:27;14.10;60.00
20335;DHT22;10325;51.468;5.804;2023-02-28T07:12:01;14.10;59.40
20335;DHT22;10325;51.468;5.804;2023-02-28T07:14:31;14.10;59.40
20335;DHT22;10325;51.468;5.804;2023-02-28T07:17:00;14.10;59.40
20335;DHT22;10325;51.468;5.804;2023-02-28T07:19:31;14.10;59.30
20335;DHT22;10325;51.468;5.804;2023-02-28T07:22:02;14.00;59.30
20335;DHT22;10325;51.468;5.804;2023-02-28T07:24:30;14.10;59.30
20335;DHT22;10325;51.468;5.804;2023-02-28T07:27:00;14.00;59.30
20335;DHT22;10325;51.468;5.804;2023-02-28T07:29:31;14.10;59.30
20335;DHT22;10325;51.468;5.804;2023-02-28T07:32:03;14.00;59.30
20335;DHT22;10325;51.468;5.804;2023-02-28T07:34:37;14.10;59.30
20335;DHT22;10325;51.468;5.804;2023-02-28T07:37:11;14.10;60.10
20335;DHT22;10325;51.468;5.804;2023-02-28T07:39:42;14.30;60.80
20335;DHT22;10325;51.468;5.804;2023-02-28T07:42:13;14.60;61.70
20335;DHT22;10325;51.468;5.804;2023-02-28T07:44:44;14.90;61.10
20335;DHT22;10325;51.468;5.804;2023-02-28T07:47:14;15.30;60.60
20335;DHT22;10325;51.468;5.804;2023-02-28T07:49:48;15.60;59.80
20335;DHT22;10325;51.468;5.804;2023-02-28T07:52:17;15.90;59.30
20335;DHT22;10325;51.468;5.804;2023-02-28T07:54:59;16.20;58.80
20335;DHT22;10325;51.468;5.804;2023-02-28T07:57:30;16.40;57.90
20335;DHT22;10325;51.468;5.804;2023-02-28T08:00:07;16.70;55.60
20335;DHT22;10325;51.468;5.804;2023-02-28T08:02:36;16.80;54.70
20335;DHT22;10325;51.468;5.804;2023-02-28T08:05:08;17.00;55.30
20335;DHT22;10325;51.468;5.804;2023-02-28T08:07:40;17.30;55.20
20335;DHT22;10325;51.468;5.804;2023-02-28T08:10:12;17.50;54.90
20335;DHT22;10325;51.468;5.804;2023-02-28T08:12:40;17.80;54.70
20335;DHT22;10325;51.468;5.804;2023-02-28T08:15:10;18.00;53.90
20335;DHT22;10325;51.468;5.804;2023-02-28T08:17:38;18.20;53.90
20335;DHT22;10325;51.468;5.804;2023-02-28T08:20:10;18.40;53.70
20335;DHT22;10325;51.468;5.804;2023-02-28T08:22:40;18.60;53.30
20335;DHT22;10325;51.468;5.804;2023-02-28T08:25:12;18.70;53.10
20335;DHT22;10325;51.468;5.804;2023-02-28T08:27:43;18.90;52.70
20335;DHT22;10325;51.468;5.804;2023-02-28T08:30:13;19.00;52.30
20335;DHT22;10325;51.468;5.804;2023-02-28T08:32:45;19.20;52.80
20335;DHT22;10325;51.468;5.804;2023-02-28T08:35:17;19.10;51.30
20335;DHT22;10325;51.468;5.804;2023-02-28T08:37:52;19.00;50.60
20335;DHT22;10325;51.468;5.804;2023-02-28T08:40:25;18.90;51.10
20335;DHT22;10325;51.468;5.804;2023-02-28T08:42:58;18.70;50.60
20335;DHT22;10325;51.468;5.804;2023-02-28T08:45:30;18.60;50.80
20335;DHT22;10325;51.468;5.804;2023-02-28T08:48:03;18.60;51.10
20335;DHT22;10325;51.468;5.804;2023-02-28T08:50:36;18.50;50.80
20335;DHT22;10325;51.468;5.804;2023-02-28T08:53:04;18.40;51.10
20335;DHT22;10325;51.468;5.804;2023-02-28T08:55:34;18.40;51.10
20335;DHT22;10325;51.468;5.804;2023-02-28T08:58:06;18.30;51.00
20335;DHT22;10325;51.468;5.804;2023-02-28T09:00:38;18.30;51.50
20335;DHT22;10325;51.468;5.804;2023-02-28T09:03:11;18.30;51.00
20335;DHT22;10325;51.468;5.804;2023-02-28T09:05:56;18.30;51.70
20335;DHT22;10325;51.468;5.804;2023-02-28T09:08:29;18.30;51.60
20335;DHT22;10325;51.468;5.804;2023-02-28T09:11:00;18.20;51.40
20335;DHT22;10325;51.468;5.804;2023-02-28T09:13:31;18.20;52.90
20335;DHT22;10325;51.468;5.804;2023-02-28T09:16:07;18.40;52.60
20335;DHT22;10325;51.468;5.804;2023-02-28T09:18:40;18.70;52.50
20335;DHT22;10325;51.468;5.804;2023-02-28T09:21:11;18.90;52.30
20335;DHT22;10325;51.468;5.804;2023-02-28T09:23:50;19.00;51.00
20335;DHT22;10325;51.468;5.804;2023-02-28T09:26:24;18.90;50.40
20335;DHT22;10325;51.468;5.804;2023-02-28T09:29:08;18.80;50.50
20335;DHT22;10325;51.468;5.804;2023-02-28T09:31:39;18.70;50.70
20335;DHT22;10325;51.468;5.804;2023-02-28T09:34:10;18.70;50.60
20335;DHT22;10325;51.468;5.804;2023-02-28T09:36:40;18.70;50.40
20335;DHT22;10325;51.468;5.804;2023-02-28T09:39:15;18.60;50.70
20335;DHT22;10325;51.468;5.804;2023-02-28T09:41:58;18.60;50.30
20335;DHT22;10325;51.468;5.804;2023-02-28T09:44:45;18.60;50.30
20335;DHT22;10325;51.468;5.804;2023-02-28T09:47:31;18.50;51.20
20335;DHT22;10325;51.468;5.804;2023-02-28T09:52:59;18.50;51.20
20335;DHT22;10325;51.468;5.804;2023-02-28T09:55:45;18.40;51.40
20335;DHT22;10325;51.468;5.804;2023-02-28T10:01:52;18.50;50.90
20335;DHT22;10325;51.468;5.804;2023-02-28T10:04:42;18.50;50.90
20335;DHT22;10325;51.468;5.804;2023-02-28T10:07:21;18.50;51.20
20335;DHT22;10325;51.468;5.804;2023-02-28T10:09:54;18.50;51.20
20335;DHT22;10325;51.468;5.804;2023-02-28T10:12:34;18.50;51.40
20335;DHT22;10325;51.468;5.804;2023-02-28T10:15:07;18.40;49.30
20335;DHT22;10325;51.468;5.804;2023-02-28T10:17:40;18.20;49.30
20335;DHT22;10325;51.468;5.804;2023-02-28T10:20:38;18.10;49.90
20335;DHT22;10325;51.468;5.804;2023-02-28T10:23:32;18.00;50.30
20335;DHT22;10325;51.468;5.804;2023-02-28T10:26:13;17.90;50.30
20335;DHT22;10325;51.468;5.804;2023-02-28T10:28:44;17.80;50.50
20335;DHT22;10325;51.468;5.804;2023-02-28T10:31:20;17.80;50.60
20335;DHT22;10325;51.468;5.804;2023-02-28T10:33:55;17.60;50.70
20335;DHT22;10325;51.468;5.804;2023-02-28T10:36:28;17.50;50.60
20335;DHT22;10325;51.468;5.804;2023-02-28T10:39:00;17.50;50.50
20335;DHT22;10325;51.468;5.804;2023-02-28T10:41:35;17.40;50.60
20335;DHT22;10325;51.468;5.804;2023-02-28T10:44:23;17.60;51.50
20335;DHT22;10325;51.468;5.804;2023-02-28T10:46:53;17.90;51.60
20335;DHT22;10325;51.468;5.804;2023-02-28T10:49:27;18.20;51.50
20335;DHT22;10325;51.468;5.804;2023-02-28T10:52:00;18.40;51.30
20335;DHT22;10325;51.468;5.804;2023-02-28T10:54:34;18.70;51.70
20335;DHT22;10325;51.468;5.804;2023-02-28T10:57:20;18.90;50.90
20335;DHT22;10325;51.468;5.804;2023-02-28T11:00:23;19.20;50.80
20335;DHT22;10325;51.468;5.804;2023-02-28T11:03:29;19.40;50.60
20335;DHT22;10325;51.468;5.804;2023-02-28T11:06:16;19.70;49.50
20335;DHT22;10325;51.468;5.804;2023-02-28T11:12:16;20.00;49.60
20335;DHT22;10325;51.468;5.804;2023-02-28T11:14:59;20.10;49.30
20335;DHT22;10325;51.468;5.804;2023-02-28T11:17:33;20.30;49.20
20335;DHT22;10325;51.468;5.804;2023-02-28T11:20:04;20.50;48.80
20335;DHT22;10325;51.468;5.804;2023-02-28T11:22:45;20.60;48.70
20335;DHT22;10325;51.468;5.804;2023-02-28T11:27:59;20.60;48.30
20335;DHT22;10325;51.468;5.804;2023-02-28T11:30:40;20.50;48.30
20335;DHT22;10325;51.468;5.804;2023-02-28T11:33:28;20.20;45.20
20335;DHT22;10325;51.468;5.804;2023-02-28T11:36:15;19.90;45.90
20335;DHT22;10325;51.468;5.804;2023-02-28T11:38:52;19.60;46.60
20335;DHT22;10325;51.468;5.804;2023-02-28T11:47:10;19.00;47.70
20335;DHT22;10325;51.468;5.804;2023-02-28T11:52:54;18.80;48.50
20335;DHT22;10325;51.468;5.804;2023-02-28T11:55:46;18.70;48.70
20335;DHT22;10325;51.468;5.804;2023-02-28T11:58:32;18.50;49.00
20335;DHT22;10325;51.468;5.804;2023-02-28T12:04:24;18.30;49.30
20335;DHT22;10325;51.468;5.804;2023-02-28T12:07:15;18.30;49.40
20335;DHT22;10325;51.468;5.804;2023-02-28T12:10:20;18.20;49.50
20335;DHT22;10325;51.468;5.804;2023-02-28T12:13:16;18.10;49.60
20335;DHT22;10325;51.468;5.804;2023-02-28T12:27:33;17.90;50.00
20335;DHT22;10325;51.468;5.804;2023-02-28T12:30:32;17.90;49.80
20335;DHT22;10325;51.468;5.804;2023-02-28T12:33:12;17.80;49.90
20335;DHT22;10325;51.468;5.804;2023-02-28T12:35:59;17.80;50.10
20335;DHT22;10325;51.468;5.804;2023-02-28T12:38:44;17.80;50.20
20335;DHT22;10325;51.468;5.804;2023-02-28T12:41:38;17.80;50.50
20335;DHT22;10325;51.468;5.804;2023-02-28T12:44:26;17.80;50.50
20335;DHT22;10325;51.468;5.804;2023-02-28T12:47:03;17.70;50.50
20335;DHT22;10325;51.468;5.804;2023-02-28T12:49:41;17.70;50.30
20335;DHT22;10325;51.468;5.804;2023-02-28T12:52:19;17.70;50.30
20335;DHT22;10325;51.468;5.804;2023-02-28T12:56:08;17.70;50.50
20335;DHT22;10325;51.468;5.804;2023-02-28T12:58:41;17.70;50.60
20335;DHT22;10325;51.468;5.804;2023-02-28T13:01:42;17.70;50.60
20335;DHT22;10325;51.468;5.804;2023-02-28T13:04:40;17.60;50.60
20335;DHT22;10325;51.468;5.804;2023-02-28T13:10:23;17.60;50.70
20335;DHT22;10325;51.468;5.804;2023-02-28T13:13:03;17.60;50.70
20335;DHT22;10325;51.468;5.804;2023-02-28T13:15:31;17.60;50.70
20335;DHT22;10325;51.468;5.804;2023-02-28T13:18:05;17.60;50.90
20335;DHT22;10325;51.468;5.804;2023-02-28T13:20:36;17.60;50.90
20335;DHT22;10325;51.468;5.804;2023-02-28T13:29:42;17.60;51.10
20335;DHT22;10325;51.468;5.804;2023-02-28T13:32:29;17.60;51.20
20335;DHT22;10325;51.468;5.804;2023-02-28T13:37:47;17.60;51.20
20335;DHT22;10325;51.468;5.804;2023-02-28T13:40:32;17.50;51.30
20335;DHT22;10325;51.468;5.804;2023-02-28T13:46:20;17.50;51.10
20335;DHT22;10325;51.468;5.804;2023-02-28T13:48:51;17.50;51.20
20335;DHT22;10325;51.468;5.804;2023-02-28T13:51:42;17.50;51.40
20335;DHT22;10325;51.468;5.804;2023-02-28T13:58:04;17.50;51.50
20335;DHT22;10325;51.468;5.804;2023-02-28T14:06:37;17.40;51.60
20335;DHT22;10325;51.468;5.804;2023-02-28T14:09:35;17.50;51.60
20335;DHT22;10325;51.468;5.804;2023-02-28T14:15:54;17.50;51.70
20335;DHT22;10325;51.468;5.804;2023-02-28T14:18:35;17.50;51.80
20335;DHT22;10325;51.468;5.804;2023-02-28T14:21:51;17.50;51.70
20335;DHT22;10325;51.468;5.804;2023-02-28T14:27:45;17.50;51.60
20335;DHT22;10325;51.468;5.804;2023-02-28T14:31:00;17.60;51.70
20335;DHT22;10325;51.468;5.804;2023-02-28T14:33:48;17.50;51.80
20335;DHT22;10325;51.468;5.804;2023-02-28T14:36:30;17.60;51.90
20335;DHT22;10325;51.468;5.804;2023-02-28T14:39:19;17.50;51.90
20335;DHT22;10325;51.468;5.804;2023-02-28T14:41:51;17.60;51.90
20335;DHT22;10325;51.468;5.804;2023-02-28T14:44:26;17.60;52.00
20335;DHT22;10325;51.468;5.804;2023-02-28T14:47:03;17.60;51.90
20335;DHT22;10325;51.468;5.804;2023-02-28T14:49:43;17.60;52.00
20335;DHT22;10325;51.468;5.804;2023-02-28T14:52:24;17.70;52.00
20335;DHT22;10325;51.468;5.804;2023-02-28T14:55:12;17.60;51.90
20335;DHT22;10325;51.468;5.804;2023-02-28T14:57:55;17.60;52.00
20335;DHT22;10325;51.468;5.804;2023-02-28T15:00:34;17.60;52.20
20335;DHT22;10325;51.468;5.804;2023-02-28T15:03:38;17.60;52.20
20335;DHT22;10325;51.468;5.804;2023-02-28T15:06:17;17.60;52.10
20335;DHT22;10325;51.468;5.804;2023-02-28T15:09:19;17.60;52.10
20335;DHT22;10325;51.468;5.804;2023-02-28T15:11:52;17.60;52.20
20335;DHT22;10325;51.468;5.804;2023-02-28T15:14:26;17.60;52.20
20335;DHT22;10325;51.468;5.804;2023-02-28T15:17:03;17.60;52.30
20335;DHT22;10325;51.468;5.804;2023-02-28T15:19:43;17.60;52.40
20335;DHT22;10325;51.468;5.804;2023-02-28T15:22:34;17.60;52.30
20335;DHT22;10325;51.468;5.804;2023-02-28T15:25:06;17.60;52.30
20335;DHT22;10325;51.468;5.804;2023-02-28T15:27:53;17.50;52.40
20335;DHT22;10325;51.468;5.804;2023-02-28T15:30:31;17.60;52.50
20335;DHT22;10325;51.468;5.804;2023-02-28T15:33:27;17.60;52.40
20335;DHT22;10325;51.468;5.804;2023-02-28T15:36:14;17.60;52.40
20335;DHT22;10325;51.468;5.804;2023-02-28T15:38:44;17.60;52.40
20335;DHT22;10325;51.468;5.804;2023-02-28T15:41:35;17.60;52.50
20335;DHT22;10325;51.468;5.804;2023-02-28T15:44:35;17.60;52.40
20335;DHT22;10325;51.468;5.804;2023-02-28T15:47:18;17.60;52.50
20335;DHT22;10325;51.468;5.804;2023-02-28T15:50:10;17.50;52.40
20335;DHT22;10325;51.468;5.804;2023-02-28T15:52:54;17.50;52.60
20335;DHT22;10325;51.468;5.804;2023-02-28T15:55:28;17.60;52.50
20335;DHT22;10325;51.468;5.804;2023-02-28T15:58:01;17.50;52.60
20335;DHT22;10325;51.468;5.804;2023-02-28T16:00:32;17.50;52.60
20335;DHT22;10325;51.468;5.804;2023-02-28T16:03:22;17.50;52.60
20335;DHT22;10325;51.468;5.804;2023-02-28T16:06:09;17.50;53.10
20335;DHT22;10325;51.468;5.804;2023-02-28T16:08:40;17.50;52.70
20335;DHT22;10325;51.468;5.804;2023-02-28T16:11:19;17.50;52.60
20335;DHT22;10325;51.468;5.804;2023-02-28T16:13:46;17.50;52.60
20335;DHT22;10325;51.468;5.804;2023-02-28T16:16:21;17.50;52.60
20335;DHT22;10325;51.468;5.804;2023-02-28T16:18:51;17.50;52.50
20335;DHT22;10325;51.468;5.804;2023-02-28T16:21:24;17.60;52.50
20335;DHT22;10325;51.468;5.804;2023-02-28T16:23:55;17.50;52.40
20335;DHT22;10325;51.468;5.804;2023-02-28T16:26:25;17.50;52.60
20335;DHT22;10325;51.468;5.804;2023-02-28T16:28:58;17.50;52.80
20335;DHT22;10325;51.468;5.804;2023-02-28T16:31:28;17.40;52.60
20335;DHT22;10325;51.468;5.804;2023-02-28T16:33:57;17.50;52.40
20335;DHT22;10325;51.468;5.804;2023-02-28T16:36:24;17.50;52.40
20335;DHT22;10325;51.468;5.804;2023-02-28T16:38:56;17.50;52.50
20335;DHT22;10325;51.468;5.804;2023-02-28T16:41:28;17.50;52.40
20335;DHT22;10325;51.468;5.804;2023-02-28T16:44:00;17.50;52.60
20335;DHT22;10325;51.468;5.804;2023-02-28T16:46:34;17.50;52.30
20335;DHT22;10325;51.468;5.804;2023-02-28T16:49:12;17.50;52.00
20335;DHT22;10325;51.468;5.804;2023-02-28T16:51:39;17.50;52.10
20335;DHT22;10325;51.468;5.804;2023-02-28T16:54:32;17.50;52.10
20335;DHT22;10325;51.468;5.804;2023-02-28T16:57:00;17.50;52.10
20335;DHT22;10325;51.468;5.804;2023-02-28T16:59:34;17.50;52.30
20335;DHT22;10325;51.468;5.804;2023-02-28T17:02:15;17.40;52.20
20335;DHT22;10325;51.468;5.804;2023-02-28T17:04:43;17.50;52.30
20335;DHT22;10325;51.468;5.804;2023-02-28T17:07:16;17.50;52.30
20335;DHT22;10325;51.468;5.804;2023-02-28T17:09:48;17.50;52.40
20335;DHT22;10325;51.468;5.804;2023-02-28T17:12:18;17.50;52.30
20335;DHT22;10325;51.468;5.804;2023-02-28T17:14:49;17.50;52.20
20335;DHT22;10325;51.468;5.804;2023-02-28T17:17:21;17.40;52.20
20335;DHT22;10325;51.468;5.804;2023-02-28T17:19:52;17.40;52.10
20335;DHT22;10325;51.468;5.804;2023-02-28T17:22:32;17.50;52.20
20335;DHT22;10325;51.468;5.804;2023-02-28T17:25:06;17.40;52.20
20335;DHT22;10325;51.468;5.804;2023-02-28T17:27:55;17.40;52.20
20335;DHT22;10325;51.468;5.804;2023-02-28T17:30:27;17.40;52.20
20335;DHT22;10325;51.468;5.804;2023-02-28T17:32:57;17.40;52.30
20335;DHT22;10325;51.468;5.804;2023-02-28T17:35:34;17.40;52.40
20335;DHT22;10325;51.468;5.804;2023-02-28T17:38:03;17.40;52.30
20335;DHT22;10325;51.468;5.804;2023-02-28T17:40:35;17.40;52.40
20335;DHT22;10325;51.468;5.804;2023-02-28T17:43:18;17.40;52.30
20335;DHT22;10325;51.468;5.804;2023-02-28T17:45:49;17.30;52.30
20335;DHT22;10325;51.468;5.804;2023-02-28T17:48:22;17.40;52.30
20335;DHT22;10325;51.468;5.804;2023-02-28T17:50:51;17.40;52.30
20335;DHT22;10325;51.468;5.804;2023-02-28T17:53:22;17.40;52.20
20335;DHT22;10325;51.468;5.804;2023-02-28T17:55:53;17.40;52.40
20335;DHT22;10325;51.468;5.804;2023-02-28T17:58:25;17.30;52.30
20335;DHT22;10325;51.468;5.804;2023-02-28T18:00:56;17.30;52.40
20335;DHT22;10325;51.468;5.804;2023-02-28T18:03:25;17.30;52.10
20335;DHT22;10325;51.468;5.804;2023-02-28T18:05:58;17.30;52.10
20335;DHT22;10325;51.468;5.804;2023-02-28T18:08:27;17.30;52.20
20335;DHT22;10325;51.468;5.804;2023-02-28T18:10:57;17.30;52.10